sensor_id;sensor_type;location;lat;lon;timestamp;P1;durP1;ratioP1;P2;durP2;ratioP2
19347;SDS011;9810;52.480;9.806;2022-08-11T00:00:10;5.83;;;2.00;;
19347;SDS011;9810;52.480;9.806;2022-08-11T00:02:41;3.40;;;1.97;;
19347;SDS011;9810;52.480;9.806;2022-08-11T00:05:12;3.43;;;1.77;;
19347;SDS011;9810;52.480;9.806;2022-08-11T00:07:43;6.07;;;1.80;;
19347;SDS011;9810;52.480;9.806;2022-08-11T00:10:14;2.20;;;2.00;;
19347;SDS011;9810;52.480;9.806;2022-08-11T00:12:43;3.47;;;1.70;;
19347;SDS011;9810;52.480;9.806;2022-08-11T00:15:20;2.23;;;1.60;;
19347;SDS011;9810;52.480;9.806;2022-08-11T00:17:50;5.80;;;2.70;;
19347;SDS011;9810;52.480;9.806;2022-08-11T00:20:24;1.80;;;1.43;;
19347;SDS011;9810;52.480;9.806;2022-08-11T00:23:00;5.57;;;2.33;;
19347;SDS011;9810;52.480;9.806;2022-08-11T00:25:35;4.87;;;2.37;;
19347;SDS011;9810;52.480;9.806;2022-08-11T00:28:13;2.40;;;2.17;;
19347;SDS011;9810;52.480;9.806;2022-08-11T00:30:50;2.80;;;2.03;;
19347;SDS011;9810;52.480;9.806;2022-08-11T00:33:21;2.47;;;1.90;;
19347;SDS011;9810;52.480;9.806;2022-08-11T00:35:50;6.37;;;1.90;;
19347;SDS011;9810;52.480;9.806;2022-08-11T00:38:24;4.97;;;1.90;;
19347;SDS011;9810;52.480;9.806;2022-08-11T00:40:56;4.87;;;2.27;;
19347;SDS011;9810;52.480;9.806;2022-08-11T00:43:37;4.90;;;1.80;;
19347;SDS011;9810;52.480;9.806;2022-08-11T00:46:18;1.90;;;1.80;;
19347;SDS011;9810;52.480;9.806;2022-08-11T00:49:12;2.53;;;2.07;;
19347;SDS011;9810;52.480;9.806;2022-08-11T00:51:54;2.93;;;1.87;;
19347;SDS011;9810;52.480;9.806;2022-08-11T01:00:30;4.60;;;1.93;;
19347;SDS011;9810;52.480;9.806;2022-08-11T01:03:14;3.60;;;2.17;;
19347;SDS011;9810;52.480;9.806;2022-08-11T01:18:11;3.70;;;2.40;;
19347;SDS011;9810;52.480;9.806;2022-08-11T01:21:16;3.27;;;1.90;;
19347;SDS011;9810;52.480;9.806;2022-08-11T01:24:25;2.30;;;1.83;;
19347;SDS011;9810;52.480;9.806;2022-08-11T01:27:18;4.57;;;2.00;;
19347;SDS011;9810;52.480;9.806;2022-08-11T01:30:14;2.83;;;1.87;;
19347;SDS011;9810;52.480;9.806;2022-08-11T01:33:07;3.03;;;2.20;;
19347;SDS011;9810;52.480;9.806;2022-08-11T01:42:44;5.43;;;2.33;;
19347;SDS011;9810;52.480;9.806;2022-08-11T01:46:00;3.83;;;2.17;;
19347;SDS011;9810;52.480;9.806;2022-08-11T01:48:37;4.63;;;1.87;;
19347;SDS011;9810;52.480;9.806;2022-08-11T01:51:13;2.50;;;2.00;;
19347;SDS011;9810;52.480;9.806;2022-08-11T01:53:50;2.63;;;1.95;;
19347;SDS011;9810;52.480;9.806;2022-08-11T01:56:26;2.93;;;1.70;;
19347;SDS011;9810;52.480;9.806;2022-08-11T01:59:07;2.40;;;1.60;;
19347;SDS011;9810;52.480;9.806;2022-08-11T02:05:13;8.77;;;3.17;;
19347;SDS011;9810;52.480;9.806;2022-08-11T02:07:51;2.13;;;1.90;;
19347;SDS011;9810;52.480;9.806;2022-08-11T02:10:26;2.80;;;1.63;;
19347;SDS011;9810;52.480;9.806;2022-08-11T02:13:33;3.40;;;1.80;;
19347;SDS011;9810;52.480;9.806;2022-08-11T02:16:15;2.30;;;2.10;;
19347;SDS011;9810;52.480;9.806;2022-08-11T02:18:54;2.80;;;2.00;;
19347;SDS011;9810;52.480;9.806;2022-08-11T02:21:49;4.13;;;2.30;;
19347;SDS011;9810;52.480;9.806;2022-08-11T02:24:40;5.00;;;2.37;;
19347;SDS011;9810;52.480;9.806;2022-08-11T02:27:13;4.83;;;2.43;;
19347;SDS011;9810;52.480;9.806;2022-08-11T02:29:46;3.43;;;2.27;;
19347;SDS011;9810;52.480;9.806;2022-08-11T02:32:22;2.77;;;2.30;;
19347;SDS011;9810;52.480;9.806;2022-08-11T02:35:13;4.93;;;2.97;;
19347;SDS011;9810;52.480;9.806;2022-08-11T02:37:48;4.07;;;2.57;;
19347;SDS011;9810;52.480;9.806;2022-08-11T02:40:25;3.43;;;2.77;;
19347;SDS011;9810;52.480;9.806;2022-08-11T02:43:04;3.03;;;2.07;;
19347;SDS011;9810;52.480;9.806;2022-08-11T02:48:37;5.83;;;2.10;;
19347;SDS011;9810;52.480;9.806;2022-08-11T02:51:35;4.03;;;2.23;;
19347;SDS011;9810;52.480;9.806;2022-08-11T02:54:10;2.77;;;1.90;;
19347;SDS011;9810;52.480;9.806;2022-08-11T02:56:46;2.40;;;2.03;;
19347;SDS011;9810;52.480;9.806;2022-08-11T03:02:32;5.03;;;2.07;;
19347;SDS011;9810;52.480;9.806;2022-08-11T03:05:25;2.40;;;2.20;;
19347;SDS011;9810;52.480;9.806;2022-08-11T03:08:03;4.13;;;1.80;;
19347;SDS011;9810;52.480;9.806;2022-08-11T03:10:52;2.60;;;1.87;;
19347;SDS011;9810;52.480;9.806;2022-08-11T03:13:45;2.57;;;1.97;;
19347;SDS011;9810;52.480;9.806;2022-08-11T03:16:40;2.63;;;2.17;;
19347;SDS011;9810;52.480;9.806;2022-08-11T03:19:20;2.43;;;1.93;;
19347;SDS011;9810;52.480;9.806;2022-08-11T03:21:55;5.10;;;2.80;;
19347;SDS011;9810;52.480;9.806;2022-08-11T03:24:32;6.40;;;2.90;;
19347;SDS011;9810;52.480;9.806;2022-08-11T03:27:06;3.93;;;2.43;;
19347;SDS011;9810;52.480;9.806;2022-08-11T03:29:37;3.27;;;2.77;;
19347;SDS011;9810;52.480;9.806;2022-08-11T03:32:18;5.53;;;2.73;;
19347;SDS011;9810;52.480;9.806;2022-08-11T03:34:53;6.27;;;2.40;;
19347;SDS011;9810;52.480;9.806;2022-08-11T03:37:29;4.77;;;2.37;;
19347;SDS011;9810;52.480;9.806;2022-08-11T03:40:23;5.00;;;3.00;;
19347;SDS011;9810;52.480;9.806;2022-08-11T03:43:29;3.67;;;2.47;;
19347;SDS011;9810;52.480;9.806;2022-08-11T03:46:19;6.73;;;2.83;;
19347;SDS011;9810;52.480;9.806;2022-08-11T03:48:59;4.47;;;2.63;;
19347;SDS011;9810;52.480;9.806;2022-08-11T03:51:38;4.90;;;2.63;;
19347;SDS011;9810;52.480;9.806;2022-08-11T03:54:19;3.27;;;2.43;;
19347;SDS011;9810;52.480;9.806;2022-08-11T04:15:47;6.60;;;3.10;;
19347;SDS011;9810;52.480;9.806;2022-08-11T04:25:01;6.43;;;3.30;;
19347;SDS011;9810;52.480;9.806;2022-08-11T04:31:07;5.33;;;2.33;;
19347;SDS011;9810;52.480;9.806;2022-08-11T04:33:54;2.80;;;2.10;;
19347;SDS011;9810;52.480;9.806;2022-08-11T04:36:48;3.93;;;2.50;;
19347;SDS011;9810;52.480;9.806;2022-08-11T04:39:50;3.87;;;2.27;;
19347;SDS011;9810;52.480;9.806;2022-08-11T04:42:58;4.90;;;2.70;;
19347;SDS011;9810;52.480;9.806;2022-08-11T04:46:03;3.80;;;2.47;;
19347;SDS011;9810;52.480;9.806;2022-08-11T04:52:11;2.73;;;2.40;;
19347;SDS011;9810;52.480;9.806;2022-08-11T04:55:21;6.77;;;2.70;;
19347;SDS011;9810;52.480;9.806;2022-08-11T04:58:21;3.50;;;2.10;;
19347;SDS011;9810;52.480;9.806;2022-08-11T05:01:22;5.70;;;3.03;;
19347;SDS011;9810;52.480;9.806;2022-08-11T05:07:39;3.57;;;2.50;;
19347;SDS011;9810;52.480;9.806;2022-08-11T05:10:42;4.97;;;2.90;;
19347;SDS011;9810;52.480;9.806;2022-08-11T05:13:26;4.53;;;2.47;;
19347;SDS011;9810;52.480;9.806;2022-08-11T05:16:14;3.70;;;2.87;;
19347;SDS011;9810;52.480;9.806;2022-08-11T05:19:00;3.63;;;2.60;;
19347;SDS011;9810;52.480;9.806;2022-08-11T05:21:47;6.70;;;3.27;;
19347;SDS011;9810;52.480;9.806;2022-08-11T05:24:40;10.43;;;3.47;;
19347;SDS011;9810;52.480;9.806;2022-08-11T05:27:28;12.10;;;3.57;;
19347;SDS011;9810;52.480;9.806;2022-08-11T05:30:17;10.23;;;3.13;;
19347;SDS011;9810;52.480;9.806;2022-08-11T05:33:04;7.03;;;2.80;;
19347;SDS011;9810;52.480;9.806;2022-08-11T05:35:54;4.97;;;3.00;;
19347;SDS011;9810;52.480;9.806;2022-08-11T05:38:27;7.73;;;3.07;;
19347;SDS011;9810;52.480;9.806;2022-08-11T05:41:17;8.03;;;3.20;;
19347;SDS011;9810;52.480;9.806;2022-08-11T05:44:03;9.57;;;2.87;;
19347;SDS011;9810;52.480;9.806;2022-08-11T05:46:50;6.00;;;3.80;;
19347;SDS011;9810;52.480;9.806;2022-08-11T05:49:34;9.83;;;2.83;;
19347;SDS011;9810;52.480;9.806;2022-08-11T05:52:20;3.23;;;2.40;;
19347;SDS011;9810;52.480;9.806;2022-08-11T05:55:07;3.90;;;2.33;;
19347;SDS011;9810;52.480;9.806;2022-08-11T05:57:54;5.90;;;2.97;;
19347;SDS011;9810;52.480;9.806;2022-08-11T06:00:22;5.90;;;2.73;;
19347;SDS011;9810;52.480;9.806;2022-08-11T06:02:52;10.80;;;2.53;;
19347;SDS011;9810;52.480;9.806;2022-08-11T06:05:21;3.10;;;2.50;;
19347;SDS011;9810;52.480;9.806;2022-08-11T06:07:49;5.73;;;2.70;;
19347;SDS011;9810;52.480;9.806;2022-08-11T06:10:24;7.23;;;2.90;;
19347;SDS011;9810;52.480;9.806;2022-08-11T06:12:57;3.10;;;2.40;;
19347;SDS011;9810;52.480;9.806;2022-08-11T06:15:26;3.57;;;2.97;;
19347;SDS011;9810;52.480;9.806;2022-08-11T06:17:57;3.30;;;2.27;;
19347;SDS011;9810;52.480;9.806;2022-08-11T06:20:27;5.60;;;2.77;;
19347;SDS011;9810;52.480;9.806;2022-08-11T06:23:02;4.57;;;2.30;;
19347;SDS011;9810;52.480;9.806;2022-08-11T06:25:34;4.77;;;2.80;;
19347;SDS011;9810;52.480;9.806;2022-08-11T06:28:02;5.63;;;2.67;;
19347;SDS011;9810;52.480;9.806;2022-08-11T06:30:33;5.43;;;2.47;;
19347;SDS011;9810;52.480;9.806;2022-08-11T06:33:09;5.87;;;3.00;;
19347;SDS011;9810;52.480;9.806;2022-08-11T06:35:43;4.70;;;2.75;;
19347;SDS011;9810;52.480;9.806;2022-08-11T06:38:15;7.23;;;3.67;;
19347;SDS011;9810;52.480;9.806;2022-08-11T06:40:54;5.37;;;2.10;;
19347;SDS011;9810;52.480;9.806;2022-08-11T06:43:45;4.50;;;2.30;;
19347;SDS011;9810;52.480;9.806;2022-08-11T06:46:16;4.23;;;2.10;;
19347;SDS011;9810;52.480;9.806;2022-08-11T06:48:55;5.50;;;2.37;;
19347;SDS011;9810;52.480;9.806;2022-08-11T06:51:26;7.40;;;2.73;;
19347;SDS011;9810;52.480;9.806;2022-08-11T06:53:54;4.83;;;2.07;;
19347;SDS011;9810;52.480;9.806;2022-08-11T06:56:24;6.22;;;2.30;;
19347;SDS011;9810;52.480;9.806;2022-08-11T06:59:11;5.53;;;2.10;;
19347;SDS011;9810;52.480;9.806;2022-08-11T07:01:59;4.10;;;2.37;;
19347;SDS011;9810;52.480;9.806;2022-08-11T07:04:40;2.37;;;1.97;;
19347;SDS011;9810;52.480;9.806;2022-08-11T07:10:46;6.07;;;2.20;;
19347;SDS011;9810;52.480;9.806;2022-08-11T07:13:44;6.47;;;1.93;;
19347;SDS011;9810;52.480;9.806;2022-08-11T07:16:30;2.10;;;1.92;;
19347;SDS011;9810;52.480;9.806;2022-08-11T07:19:00;3.20;;;2.37;;
19347;SDS011;9810;52.480;9.806;2022-08-11T07:21:48;1.73;;;1.63;;
19347;SDS011;9810;52.480;9.806;2022-08-11T07:24:35;3.00;;;2.28;;
19347;SDS011;9810;52.480;9.806;2022-08-11T07:27:22;3.78;;;2.15;;
19347;SDS011;9810;52.480;9.806;2022-08-11T07:30:11;4.70;;;2.00;;
19347;SDS011;9810;52.480;9.806;2022-08-11T07:32:40;3.47;;;2.10;;
19347;SDS011;9810;52.480;9.806;2022-08-11T07:35:15;5.82;;;1.98;;
19347;SDS011;9810;52.480;9.806;2022-08-11T07:37:47;5.18;;;2.50;;
19347;SDS011;9810;52.480;9.806;2022-08-11T07:40:21;2.90;;;1.73;;
19347;SDS011;9810;52.480;9.806;2022-08-11T07:42:50;7.88;;;1.95;;
19347;SDS011;9810;52.480;9.806;2022-08-11T07:45:18;1.80;;;1.70;;
19347;SDS011;9810;52.480;9.806;2022-08-11T07:48:04;3.42;;;2.00;;
19347;SDS011;9810;52.480;9.806;2022-08-11T07:50:50;3.50;;;2.10;;
19347;SDS011;9810;52.480;9.806;2022-08-11T07:53:36;5.75;;;1.90;;
19347;SDS011;9810;52.480;9.806;2022-08-11T07:56:05;5.53;;;2.40;;
19347;SDS011;9810;52.480;9.806;2022-08-11T07:58:33;4.03;;;1.80;;
19347;SDS011;9810;52.480;9.806;2022-08-11T08:01:20;3.25;;;1.85;;
19347;SDS011;9810;52.480;9.806;2022-08-11T08:04:06;6.00;;;1.92;;
19347;SDS011;9810;52.480;9.806;2022-08-11T08:06:53;4.97;;;1.70;;
19347;SDS011;9810;52.480;9.806;2022-08-11T08:09:39;2.78;;;2.10;;
19347;SDS011;9810;52.480;9.806;2022-08-11T08:12:26;2.67;;;1.67;;
19347;SDS011;9810;52.480;9.806;2022-08-11T08:15:13;6.18;;;1.98;;
19347;SDS011;9810;52.480;9.806;2022-08-11T08:17:59;3.88;;;1.83;;
19347;SDS011;9810;52.480;9.806;2022-08-11T08:20:30;3.70;;;1.92;;
19347;SDS011;9810;52.480;9.806;2022-08-11T08:23:02;5.10;;;2.05;;
19347;SDS011;9810;52.480;9.806;2022-08-11T08:25:32;6.88;;;2.10;;
19347;SDS011;9810;52.480;9.806;2022-08-11T08:28:06;2.83;;;2.10;;
19347;SDS011;9810;52.480;9.806;2022-08-11T08:30:36;3.13;;;2.20;;
19347;SDS011;9810;52.480;9.806;2022-08-11T08:33:11;4.90;;;2.00;;
19347;SDS011;9810;52.480;9.806;2022-08-11T08:35:41;3.00;;;1.88;;
19347;SDS011;9810;52.480;9.806;2022-08-11T08:38:09;1.85;;;1.70;;
19347;SDS011;9810;52.480;9.806;2022-08-11T08:40:41;2.90;;;1.73;;
19347;SDS011;9810;52.480;9.806;2022-08-11T08:43:12;2.55;;;1.70;;
19347;SDS011;9810;52.480;9.806;2022-08-11T08:45:42;2.95;;;1.63;;
19347;SDS011;9810;52.480;9.806;2022-08-11T08:48:10;1.95;;;1.63;;
19347;SDS011;9810;52.480;9.806;2022-08-11T08:50:42;4.18;;;1.52;;
19347;SDS011;9810;52.480;9.806;2022-08-11T08:53:33;6.85;;;1.70;;
19347;SDS011;9810;52.480;9.806;2022-08-11T08:56:04;2.47;;;1.65;;
19347;SDS011;9810;52.480;9.806;2022-08-11T08:58:35;3.53;;;1.80;;
19347;SDS011;9810;52.480;9.806;2022-08-11T09:01:04;2.28;;;1.73;;
19347;SDS011;9810;52.480;9.806;2022-08-11T09:03:34;3.58;;;1.92;;
19347;SDS011;9810;52.480;9.806;2022-08-11T09:06:02;3.58;;;1.60;;
19347;SDS011;9810;52.480;9.806;2022-08-11T09:08:29;2.35;;;1.70;;
19347;SDS011;9810;52.480;9.806;2022-08-11T09:10:59;1.63;;;1.40;;
19347;SDS011;9810;52.480;9.806;2022-08-11T09:13:54;2.00;;;1.40;;
19347;SDS011;9810;52.480;9.806;2022-08-11T09:16:22;3.95;;;1.40;;
19347;SDS011;9810;52.480;9.806;2022-08-11T09:18:50;2.40;;;1.40;;
19347;SDS011;9810;52.480;9.806;2022-08-11T09:21:18;2.25;;;1.25;;
19347;SDS011;9810;52.480;9.806;2022-08-11T09:23:46;5.25;;;1.30;;
19347;SDS011;9810;52.480;9.806;2022-08-11T09:26:31;1.38;;;1.27;;
19347;SDS011;9810;52.480;9.806;2022-08-11T09:29:28;1.35;;;1.25;;
19347;SDS011;9810;52.480;9.806;2022-08-11T09:31:57;5.45;;;1.52;;
19347;SDS011;9810;52.480;9.806;2022-08-11T09:34:25;1.88;;;1.42;;
19347;SDS011;9810;52.480;9.806;2022-08-11T09:36:52;1.65;;;1.23;;
19347;SDS011;9810;52.480;9.806;2022-08-11T09:39:38;5.78;;;1.30;;
19347;SDS011;9810;52.480;9.806;2022-08-11T09:42:24;3.28;;;1.20;;
19347;SDS011;9810;52.480;9.806;2022-08-11T09:45:15;2.92;;;1.25;;
19347;SDS011;9810;52.480;9.806;2022-08-11T09:47:41;4.82;;;1.20;;
19347;SDS011;9810;52.480;9.806;2022-08-11T09:50:09;6.03;;;1.10;;
19347;SDS011;9810;52.480;9.806;2022-08-11T09:52:38;3.05;;;0.90;;
19347;SDS011;9810;52.480;9.806;2022-08-11T09:55:07;3.72;;;1.17;;
19347;SDS011;9810;52.480;9.806;2022-08-11T09:57:37;3.45;;;1.15;;
19347;SDS011;9810;52.480;9.806;2022-08-11T10:00:28;1.60;;;0.65;;
19347;SDS011;9810;52.480;9.806;2022-08-11T10:02:57;5.97;;;1.15;;
19347;SDS011;9810;52.480;9.806;2022-08-11T10:05:25;1.00;;;0.60;;
19347;SDS011;9810;52.480;9.806;2022-08-11T10:08:11;1.85;;;0.88;;
19347;SDS011;9810;52.480;9.806;2022-08-11T10:10:43;2.00;;;1.00;;
19347;SDS011;9810;52.480;9.806;2022-08-11T10:13:13;1.33;;;1.15;;
19347;SDS011;9810;52.480;9.806;2022-08-11T10:15:44;1.38;;;1.10;;
19347;SDS011;9810;52.480;9.806;2022-08-11T10:18:13;1.52;;;0.95;;
19347;SDS011;9810;52.480;9.806;2022-08-11T10:20:59;2.70;;;0.80;;
19347;SDS011;9810;52.480;9.806;2022-08-11T10:23:29;3.13;;;0.80;;
19347;SDS011;9810;52.480;9.806;2022-08-11T10:26:17;2.85;;;1.00;;
19347;SDS011;9810;52.480;9.806;2022-08-11T10:29:03;3.00;;;1.15;;
19347;SDS011;9810;52.480;9.806;2022-08-11T10:31:54;1.50;;;0.80;;
19347;SDS011;9810;52.480;9.806;2022-08-11T10:34:39;1.17;;;0.88;;
19347;SDS011;9810;52.480;9.806;2022-08-11T10:37:09;0.93;;;0.63;;
19347;SDS011;9810;52.480;9.806;2022-08-11T10:39:38;2.30;;;1.05;;
19347;SDS011;9810;52.480;9.806;2022-08-11T10:42:06;1.83;;;1.17;;
19347;SDS011;9810;52.480;9.806;2022-08-11T10:44:52;2.78;;;1.08;;
19347;SDS011;9810;52.480;9.806;2022-08-11T10:47:22;3.75;;;0.70;;
19347;SDS011;9810;52.480;9.806;2022-08-11T10:49:59;4.95;;;1.02;;
19347;SDS011;9810;52.480;9.806;2022-08-11T10:52:44;1.33;;;0.80;;
19347;SDS011;9810;52.480;9.806;2022-08-11T10:55:31;2.63;;;1.20;;
19347;SDS011;9810;52.480;9.806;2022-08-11T10:58:16;1.15;;;1.05;;
19347;SDS011;9810;52.480;9.806;2022-08-11T11:01:01;4.25;;;1.20;;
19347;SDS011;9810;52.480;9.806;2022-08-11T11:03:31;1.35;;;1.05;;
19347;SDS011;9810;52.480;9.806;2022-08-11T11:06:02;6.90;;;1.27;;
19347;SDS011;9810;52.480;9.806;2022-08-11T11:08:35;1.42;;;1.10;;
19347;SDS011;9810;52.480;9.806;2022-08-11T11:11:20;3.13;;;1.30;;
19347;SDS011;9810;52.480;9.806;2022-08-11T11:14:09;2.58;;;0.88;;
19347;SDS011;9810;52.480;9.806;2022-08-11T11:16:56;2.65;;;1.52;;
19347;SDS011;9810;52.480;9.806;2022-08-11T11:19:43;1.20;;;1.10;;
19347;SDS011;9810;52.480;9.806;2022-08-11T11:22:11;3.75;;;2.15;;
19347;SDS011;9810;52.480;9.806;2022-08-11T11:24:59;3.35;;;1.27;;
19347;SDS011;9810;52.480;9.806;2022-08-11T11:27:34;3.08;;;1.20;;
19347;SDS011;9810;52.480;9.806;2022-08-11T11:30:17;6.47;;;1.30;;
19347;SDS011;9810;52.480;9.806;2022-08-11T11:32:47;2.10;;;1.30;;
19347;SDS011;9810;52.480;9.806;2022-08-11T11:35:31;1.30;;;1.13;;
19347;SDS011;9810;52.480;9.806;2022-08-11T11:38:08;1.77;;;1.10;;
19347;SDS011;9810;52.480;9.806;2022-08-11T11:40:36;1.83;;;1.20;;
19347;SDS011;9810;52.480;9.806;2022-08-11T11:43:05;2.15;;;1.27;;
19347;SDS011;9810;52.480;9.806;2022-08-11T11:45:33;3.63;;;1.20;;
19347;SDS011;9810;52.480;9.806;2022-08-11T11:48:00;2.30;;;1.35;;
19347;SDS011;9810;52.480;9.806;2022-08-11T11:50:30;2.33;;;1.20;;
19347;SDS011;9810;52.480;9.806;2022-08-11T11:53:00;2.92;;;1.40;;
19347;SDS011;9810;52.480;9.806;2022-08-11T11:55:31;4.40;;;1.75;;
19347;SDS011;9810;52.480;9.806;2022-08-11T11:58:00;1.60;;;1.15;;
19347;SDS011;9810;52.480;9.806;2022-08-11T12:00:46;4.38;;;0.98;;
19347;SDS011;9810;52.480;9.806;2022-08-11T12:03:32;1.52;;;1.38;;
19347;SDS011;9810;52.480;9.806;2022-08-11T12:06:03;2.55;;;1.20;;
19347;SDS011;9810;52.480;9.806;2022-08-11T12:08:32;2.80;;;0.90;;
19347;SDS011;9810;52.480;9.806;2022-08-11T12:11:02;1.23;;;1.13;;
19347;SDS011;9810;52.480;9.806;2022-08-11T12:13:49;1.67;;;1.27;;
19347;SDS011;9810;52.480;9.806;2022-08-11T12:16:18;2.08;;;1.08;;
19347;SDS011;9810;52.480;9.806;2022-08-11T12:18:48;3.15;;;1.40;;
19347;SDS011;9810;52.480;9.806;2022-08-11T12:21:20;3.80;;;1.13;;
19347;SDS011;9810;52.480;9.806;2022-08-11T12:23:48;2.85;;;1.40;;
19347;SDS011;9810;52.480;9.806;2022-08-11T12:26:34;1.52;;;0.90;;
19347;SDS011;9810;52.480;9.806;2022-08-11T12:29:21;3.50;;;1.20;;
19347;SDS011;9810;52.480;9.806;2022-08-11T12:31:51;2.00;;;1.30;;
19347;SDS011;9810;52.480;9.806;2022-08-11T12:34:19;1.75;;;0.80;;
19347;SDS011;9810;52.480;9.806;2022-08-11T12:36:53;1.70;;;0.90;;
19347;SDS011;9810;52.480;9.806;2022-08-11T12:39:23;3.47;;;1.25;;
19347;SDS011;9810;52.480;9.806;2022-08-11T12:42:06;4.00;;;1.10;;
19347;SDS011;9810;52.480;9.806;2022-08-11T12:44:52;1.77;;;1.27;;
19347;SDS011;9810;52.480;9.806;2022-08-11T12:47:40;3.30;;;1.25;;
19347;SDS011;9810;52.480;9.806;2022-08-11T12:50:40;1.95;;;1.20;;
19347;SDS011;9810;52.480;9.806;2022-08-11T12:53:28;3.17;;;1.10;;
19347;SDS011;9810;52.480;9.806;2022-08-11T12:55:59;3.85;;;1.40;;
19347;SDS011;9810;52.480;9.806;2022-08-11T12:58:48;8.57;;;1.42;;
19347;SDS011;9810;52.480;9.806;2022-08-11T13:01:18;2.42;;;1.20;;
19347;SDS011;9810;52.480;9.806;2022-08-11T13:04:03;1.30;;;1.20;;
19347;SDS011;9810;52.480;9.806;2022-08-11T13:06:49;2.70;;;1.10;;
19347;SDS011;9810;52.480;9.806;2022-08-11T13:09:19;1.42;;;1.33;;
19347;SDS011;9810;52.480;9.806;2022-08-11T13:11:48;3.15;;;1.02;;
19347;SDS011;9810;52.480;9.806;2022-08-11T13:14:32;1.42;;;1.00;;
19347;SDS011;9810;52.480;9.806;2022-08-11T13:17:00;3.67;;;1.10;;
19347;SDS011;9810;52.480;9.806;2022-08-11T13:19:47;2.15;;;1.40;;
19347;SDS011;9810;52.480;9.806;2022-08-11T13:22:16;4.05;;;1.48;;
19347;SDS011;9810;52.480;9.806;2022-08-11T13:24:46;3.22;;;1.17;;
19347;SDS011;9810;52.480;9.806;2022-08-11T13:27:14;13.98;;;1.45;;
19347;SDS011;9810;52.480;9.806;2022-08-11T13:29:44;2.63;;;1.23;;
19347;SDS011;9810;52.480;9.806;2022-08-11T13:32:13;7.57;;;1.38;;
19347;SDS011;9810;52.480;9.806;2022-08-11T13:34:42;1.88;;;1.33;;
19347;SDS011;9810;52.480;9.806;2022-08-11T13:37:11;7.00;;;1.60;;
19347;SDS011;9810;52.480;9.806;2022-08-11T13:39:41;5.88;;;1.40;;
19347;SDS011;9810;52.480;9.806;2022-08-11T13:42:13;5.43;;;1.35;;
19347;SDS011;9810;52.480;9.806;2022-08-11T13:44:45;10.80;;;1.35;;
19347;SDS011;9810;52.480;9.806;2022-08-11T13:47:13;1.10;;;1.00;;
19347;SDS011;9810;52.480;9.806;2022-08-11T13:49:41;5.68;;;1.45;;
19347;SDS011;9810;52.480;9.806;2022-08-11T13:52:12;1.33;;;1.23;;
19347;SDS011;9810;52.480;9.806;2022-08-11T13:54:41;3.53;;;1.10;;
19347;SDS011;9810;52.480;9.806;2022-08-11T13:57:10;3.78;;;1.35;;
19347;SDS011;9810;52.480;9.806;2022-08-11T13:59:43;2.90;;;1.30;;
19347;SDS011;9810;52.480;9.806;2022-08-11T14:02:12;1.67;;;1.38;;
19347;SDS011;9810;52.480;9.806;2022-08-11T14:04:43;3.53;;;0.93;;
19347;SDS011;9810;52.480;9.806;2022-08-11T14:07:17;2.53;;;1.20;;
19347;SDS011;9810;52.480;9.806;2022-08-11T14:09:47;6.18;;;1.27;;
19347;SDS011;9810;52.480;9.806;2022-08-11T14:12:24;2.90;;;1.30;;
19347;SDS011;9810;52.480;9.806;2022-08-11T14:15:12;2.05;;;1.30;;
19347;SDS011;9810;52.480;9.806;2022-08-11T14:17:45;2.40;;;1.38;;
19347;SDS011;9810;52.480;9.806;2022-08-11T14:20:17;1.00;;;1.00;;
19347;SDS011;9810;52.480;9.806;2022-08-11T14:22:46;2.72;;;1.60;;
19347;SDS011;9810;52.480;9.806;2022-08-11T14:25:13;3.55;;;1.33;;
19347;SDS011;9810;52.480;9.806;2022-08-11T14:27:43;3.88;;;1.95;;
19347;SDS011;9810;52.480;9.806;2022-08-11T14:30:13;1.15;;;1.15;;
19347;SDS011;9810;52.480;9.806;2022-08-11T14:32:54;2.90;;;1.35;;
19347;SDS011;9810;52.480;9.806;2022-08-11T14:35:23;2.90;;;1.45;;
19347;SDS011;9810;52.480;9.806;2022-08-11T14:37:51;1.55;;;1.40;;
19347;SDS011;9810;52.480;9.806;2022-08-11T14:40:19;3.00;;;1.48;;
19347;SDS011;9810;52.480;9.806;2022-08-11T14:43:05;4.97;;;1.38;;
19347;SDS011;9810;52.480;9.806;2022-08-11T14:45:50;7.28;;;1.70;;
19347;SDS011;9810;52.480;9.806;2022-08-11T14:48:35;1.40;;;1.23;;
19347;SDS011;9810;52.480;9.806;2022-08-11T14:51:03;2.78;;;1.27;;
19347;SDS011;9810;52.480;9.806;2022-08-11T14:53:31;1.70;;;1.60;;
19347;SDS011;9810;52.480;9.806;2022-08-11T14:55:59;3.03;;;1.40;;
19347;SDS011;9810;52.480;9.806;2022-08-11T14:58:45;3.08;;;1.20;;
19347;SDS011;9810;52.480;9.806;2022-08-11T15:01:13;1.58;;;1.48;;
19347;SDS011;9810;52.480;9.806;2022-08-11T15:03:54;3.78;;;1.40;;
19347;SDS011;9810;52.480;9.806;2022-08-11T15:06:21;3.13;;;1.67;;
19347;SDS011;9810;52.480;9.806;2022-08-11T15:08:52;7.88;;;1.85;;
19347;SDS011;9810;52.480;9.806;2022-08-11T15:11:22;2.15;;;1.42;;
19347;SDS011;9810;52.480;9.806;2022-08-11T15:14:09;3.00;;;1.30;;
19347;SDS011;9810;52.480;9.806;2022-08-11T15:16:40;4.10;;;1.38;;
19347;SDS011;9810;52.480;9.806;2022-08-11T15:19:29;2.15;;;1.10;;
19347;SDS011;9810;52.480;9.806;2022-08-11T15:21:58;1.85;;;1.70;;
19347;SDS011;9810;52.480;9.806;2022-08-11T15:24:43;2.22;;;1.08;;
19347;SDS011;9810;52.480;9.806;2022-08-11T15:27:11;3.63;;;1.20;;
19347;SDS011;9810;52.480;9.806;2022-08-11T15:30:02;3.25;;;1.23;;
19347;SDS011;9810;52.480;9.806;2022-08-11T15:32:47;1.25;;;1.13;;
19347;SDS011;9810;52.480;9.806;2022-08-11T15:35:33;1.48;;;1.38;;
19347;SDS011;9810;52.480;9.806;2022-08-11T15:38:20;2.70;;;1.55;;
19347;SDS011;9810;52.480;9.806;2022-08-11T15:40:50;6.15;;;1.33;;
19347;SDS011;9810;52.480;9.806;2022-08-11T15:43:44;7.40;;;3.03;;
19347;SDS011;9810;52.480;9.806;2022-08-11T15:46:39;2.58;;;1.58;;
19347;SDS011;9810;52.480;9.806;2022-08-11T15:49:10;1.92;;;1.40;;
19347;SDS011;9810;52.480;9.806;2022-08-11T15:51:40;4.03;;;1.30;;
19347;SDS011;9810;52.480;9.806;2022-08-11T15:54:13;2.20;;;1.40;;
19347;SDS011;9810;52.480;9.806;2022-08-11T15:56:47;4.32;;;1.55;;
19347;SDS011;9810;52.480;9.806;2022-08-11T15:59:17;2.00;;;1.23;;
19347;SDS011;9810;52.480;9.806;2022-08-11T16:02:05;4.50;;;1.65;;
19347;SDS011;9810;52.480;9.806;2022-08-11T16:04:51;2.80;;;1.40;;
19347;SDS011;9810;52.480;9.806;2022-08-11T16:07:21;1.63;;;1.33;;
19347;SDS011;9810;52.480;9.806;2022-08-11T16:09:52;1.60;;;1.30;;
19347;SDS011;9810;52.480;9.806;2022-08-11T16:12:24;0.90;;;0.90;;
19347;SDS011;9810;52.480;9.806;2022-08-11T16:14:55;1.45;;;1.23;;
19347;SDS011;9810;52.480;9.806;2022-08-11T16:18:00;5.28;;;1.38;;
19347;SDS011;9810;52.480;9.806;2022-08-11T16:20:30;2.10;;;1.50;;
19347;SDS011;9810;52.480;9.806;2022-08-11T16:23:01;2.35;;;1.50;;
19347;SDS011;9810;52.480;9.806;2022-08-11T16:25:32;4.82;;;1.33;;
19347;SDS011;9810;52.480;9.806;2022-08-11T16:28:01;3.28;;;1.52;;
19347;SDS011;9810;52.480;9.806;2022-08-11T16:30:31;5.00;;;1.60;;
19347;SDS011;9810;52.480;9.806;2022-08-11T16:33:02;3.63;;;1.25;;
19347;SDS011;9810;52.480;9.806;2022-08-11T16:35:34;2.72;;;1.33;;
19347;SDS011;9810;52.480;9.806;2022-08-11T16:38:20;3.35;;;1.45;;
19347;SDS011;9810;52.480;9.806;2022-08-11T16:41:04;4.82;;;1.40;;
19347;SDS011;9810;52.480;9.806;2022-08-11T16:43:37;2.28;;;1.17;;
19347;SDS011;9810;52.480;9.806;2022-08-11T16:46:24;2.00;;;1.30;;
19347;SDS011;9810;52.480;9.806;2022-08-11T16:49:09;2.42;;;1.52;;
19347;SDS011;9810;52.480;9.806;2022-08-11T16:51:42;4.00;;;1.35;;
19347;SDS011;9810;52.480;9.806;2022-08-11T16:54:09;4.13;;;1.40;;
19347;SDS011;9810;52.480;9.806;2022-08-11T16:56:38;3.35;;;1.60;;
19347;SDS011;9810;52.480;9.806;2022-08-11T16:59:10;3.28;;;1.40;;
19347;SDS011;9810;52.480;9.806;2022-08-11T17:01:41;2.92;;;1.38;;
19347;SDS011;9810;52.480;9.806;2022-08-11T17:04:16;2.10;;;1.40;;
19347;SDS011;9810;52.480;9.806;2022-08-11T17:07:07;3.63;;;1.50;;
19347;SDS011;9810;52.480;9.806;2022-08-11T17:09:52;3.75;;;1.60;;
19347;SDS011;9810;52.480;9.806;2022-08-11T17:12:38;3.55;;;1.63;;
19347;SDS011;9810;52.480;9.806;2022-08-11T17:15:24;3.60;;;1.58;;
19347;SDS011;9810;52.480;9.806;2022-08-11T17:18:09;7.32;;;1.23;;
19347;SDS011;9810;52.480;9.806;2022-08-11T17:21:03;4.85;;;1.38;;